createdAt,value
2023-03-25T00:00:09.940Z,996.63
2023-03-25T00:01:09.910Z,996.66
2023-03-25T00:02:09.932Z,996.67
2023-03-25T00:03:09.887Z,996.62
2023-03-25T00:04:09.858Z,996.65
2023-03-25T00:05:09.824Z,996.68
2023-03-25T00:06:09.791Z,996.63
2023-03-25T00:07:09.764Z,996.60
2023-03-25T00:08:09.742Z,996.64
2023-03-25T00:09:09.714Z,996.59
2023-03-25T00:10:09.689Z,996.59
2023-03-25T00:11:09.662Z,996.55
2023-03-25T00:12:09.636Z,996.54
2023-03-25T00:13:09.613Z,996.64
2023-03-25T00:14:09.585Z,996.58
2023-03-25T00:15:09.564Z,996.64
2023-03-25T00:16:09.561Z,996.60
2023-03-25T00:17:09.513Z,996.63
2023-03-25T00:18:09.485Z,996.63
2023-03-25T00:19:09.462Z,996.61
2023-03-25T00:20:09.451Z,996.65
2023-03-25T00:21:09.410Z,996.64
2023-03-25T00:22:09.386Z,996.69
2023-03-25T00:23:09.357Z,996.63
2023-03-25T00:24:09.334Z,996.61
2023-03-25T00:25:09.313Z,996.58
2023-03-25T00:26:09.300Z,996.57
2023-03-25T00:27:09.265Z,996.57
2023-03-25T00:28:09.238Z,996.59
2023-03-25T00:29:09.207Z,996.64
2023-03-25T00:30:09.178Z,996.62
2023-03-25T00:31:09.232Z,996.59
2023-03-25T00:32:09.155Z,996.65
2023-03-25T00:33:09.115Z,996.65
2023-03-25T00:34:09.084Z,996.65
2023-03-25T00:35:09.073Z,996.63
2023-03-25T00:36:09.076Z,996.61
2023-03-25T00:37:09.011Z,996.66
2023-03-25T00:38:08.984Z,996.56
2023-03-25T00:39:08.964Z,996.57
2023-03-25T00:40:08.988Z,996.64
2023-03-25T00:41:08.910Z,996.63
2023-03-25T00:42:08.884Z,996.65
2023-03-25T00:43:08.866Z,996.64
2023-03-25T00:44:08.833Z,996.75
2023-03-25T00:45:08.819Z,996.67
2023-03-25T00:46:08.823Z,996.69
2023-03-25T00:47:08.764Z,996.75
2023-03-25T00:48:08.770Z,996.68
2023-03-25T00:49:08.708Z,996.70
2023-03-25T00:50:08.690Z,996.71
2023-03-25T00:51:08.700Z,996.76
2023-03-25T00:52:08.655Z,996.68
2023-03-25T00:53:08.611Z,996.74
2023-03-25T00:54:08.586Z,996.73
2023-03-25T00:55:08.585Z,996.72
2023-03-25T00:56:08.532Z,996.67
2023-03-25T00:57:08.585Z,996.74
2023-03-25T00:58:08.480Z,996.70
2023-03-25T00:59:08.454Z,996.74
2023-03-25T01:00:08.459Z,996.66
2023-03-25T01:01:08.440Z,996.65
2023-03-25T01:02:08.379Z,996.76
2023-03-25T01:03:08.526Z,996.66
2023-03-25T01:04:08.334Z,996.68
2023-03-25T01:05:08.308Z,996.67
2023-03-25T01:06:08.285Z,996.62
2023-03-25T01:07:08.260Z,996.64
2023-03-25T01:08:08.251Z,996.58
2023-03-25T01:09:08.213Z,996.64
2023-03-25T01:10:08.176Z,996.68
2023-03-25T01:11:08.154Z,996.48
2023-03-25T01:12:08.135Z,996.56
2023-03-25T01:13:08.105Z,996.60
2023-03-25T01:14:08.082Z,996.53
2023-03-25T01:15:08.057Z,996.56
2023-03-25T01:16:08.056Z,996.55
2023-03-25T01:17:08.009Z,996.52
2023-03-25T01:18:08.033Z,996.62
2023-03-25T01:19:07.954Z,996.45
2023-03-25T01:20:07.935Z,996.50
2023-03-25T01:21:07.905Z,996.49
2023-03-25T01:22:07.877Z,996.41
2023-03-25T01:23:07.851Z,996.49
2023-03-25T01:24:07.846Z,996.41
2023-03-25T01:25:07.807Z,996.47
2023-03-25T01:26:07.778Z,996.48
2023-03-25T01:27:07.753Z,996.48
2023-03-25T01:28:07.724Z,996.49
2023-03-25T01:29:07.704Z,996.45
2023-03-25T01:30:07.678Z,996.48
2023-03-25T01:31:07.694Z,996.46
2023-03-25T01:32:07.625Z,996.46
2023-03-25T01:33:07.604Z,996.48
2023-03-25T01:34:07.586Z,996.49
2023-03-25T01:35:07.589Z,996.49
2023-03-25T01:36:07.603Z,996.45
2023-03-25T01:37:07.508Z,996.42
2023-03-25T01:38:07.475Z,996.45
2023-03-25T01:39:07.453Z,996.47
2023-03-25T01:40:07.465Z,996.43
2023-03-25T01:41:07.409Z,996.28
2023-03-25T01:42:07.374Z,996.43
2023-03-25T01:43:07.353Z,996.40
2023-03-25T01:44:07.325Z,996.41
2023-03-25T01:45:07.305Z,996.44
2023-03-25T01:46:07.315Z,996.34
2023-03-25T01:47:07.250Z,996.43
2023-03-25T01:48:07.223Z,996.39
2023-03-25T01:49:07.203Z,996.40
2023-03-25T01:50:07.177Z,996.40
2023-03-25T01:51:07.151Z,996.34
2023-03-25T01:52:07.126Z,996.35
2023-03-25T01:53:07.114Z,996.36
2023-03-25T01:54:07.074Z,996.40
2023-03-25T01:55:07.057Z,996.33
2023-03-25T01:56:07.046Z,996.37
2023-03-25T01:57:07.064Z,996.26
2023-03-25T01:58:06.972Z,996.35
2023-03-25T01:59:06.961Z,996.38
2023-03-25T02:00:06.923Z,996.35
2023-03-25T02:01:06.946Z,996.41
2023-03-25T02:02:06.880Z,996.38
2023-03-25T02:03:06.920Z,996.37
2023-03-25T02:04:06.823Z,996.34
2023-03-25T02:05:06.815Z,996.36
2023-03-25T02:06:06.767Z,996.40
2023-03-25T02:07:06.747Z,996.33
2023-03-25T02:08:06.728Z,996.27
2023-03-25T02:09:06.701Z,996.30
2023-03-25T02:10:06.697Z,996.27
2023-03-25T02:11:06.646Z,996.20
2023-03-25T02:12:06.653Z,996.33
2023-03-25T02:13:06.598Z,996.36
2023-03-25T02:14:06.575Z,996.24
2023-03-25T02:15:06.570Z,996.33
2023-03-25T02:16:06.552Z,996.28
2023-03-25T02:17:06.500Z,996.27
2023-03-25T02:18:06.520Z,996.27
2023-03-25T02:19:06.450Z,996.25
2023-03-25T02:20:06.418Z,996.22
2023-03-25T02:21:06.400Z,996.19
2023-03-25T02:22:06.368Z,996.22
2023-03-25T02:23:06.346Z,996.26
2023-03-25T02:24:06.316Z,996.34
2023-03-25T02:25:06.297Z,996.32
2023-03-25T02:26:06.264Z,996.30
2023-03-25T02:27:06.247Z,996.28
2023-03-25T02:28:06.240Z,996.24
2023-03-25T02:29:06.199Z,996.30
2023-03-25T02:30:06.173Z,996.28
2023-03-25T02:31:06.153Z,996.27
2023-03-25T02:32:06.141Z,996.24
2023-03-25T02:33:06.129Z,996.24
2023-03-25T02:34:06.064Z,996.27
2023-03-25T02:35:06.044Z,996.22
2023-03-25T02:36:06.022Z,996.21
2023-03-25T02:37:05.992Z,996.26
2023-03-25T02:38:05.969Z,996.19
2023-03-25T02:39:05.956Z,996.12
2023-03-25T02:40:05.921Z,996.16
2023-03-25T02:41:05.896Z,996.11
2023-03-25T02:42:05.870Z,996.07
2023-03-25T02:43:05.896Z,996.09
2023-03-25T02:44:05.840Z,996.19
2023-03-25T02:45:05.791Z,996.16
2023-03-25T02:46:05.789Z,996.24
2023-03-25T02:47:05.738Z,996.16
2023-03-25T02:48:05.748Z,996.17
2023-03-25T02:49:05.693Z,996.22
2023-03-25T02:50:05.669Z,996.26
2023-03-25T02:51:05.639Z,996.33
2023-03-25T02:52:05.615Z,996.34
2023-03-25T02:53:05.592Z,996.33
2023-03-25T02:54:05.563Z,996.31
2023-03-25T02:55:05.537Z,996.33
2023-03-25T02:56:05.525Z,996.25
2023-03-25T02:57:05.516Z,996.25
2023-03-25T02:58:05.468Z,996.41
2023-03-25T02:59:05.443Z,996.39
2023-03-25T03:00:05.429Z,996.33
2023-03-25T03:01:05.445Z,996.32
2023-03-25T03:02:05.402Z,996.30
2023-03-25T03:03:05.437Z,996.33
2023-03-25T03:04:05.320Z,996.42
2023-03-25T03:05:05.287Z,996.35
2023-03-25T03:06:05.274Z,996.29
2023-03-25T03:07:05.237Z,996.22
2023-03-25T03:08:05.216Z,996.19
2023-03-25T03:09:05.186Z,996.18
2023-03-25T03:10:05.164Z,996.21
2023-03-25T03:11:05.142Z,996.17
2023-03-25T03:12:05.119Z,996.20
2023-03-25T03:13:05.086Z,996.20
2023-03-25T03:14:05.078Z,996.14
2023-03-25T03:15:05.029Z,996.16
2023-03-25T03:16:05.036Z,996.19
2023-03-25T03:17:05.016Z,996.21
2023-03-25T03:18:05.079Z,996.22
2023-03-25T03:19:04.941Z,996.23
2023-03-25T03:20:04.995Z,996.23
2023-03-25T03:21:04.879Z,996.21
2023-03-25T03:22:04.855Z,996.10
2023-03-25T03:23:04.834Z,996.04
2023-03-25T03:24:04.811Z,996.06
2023-03-25T03:25:04.784Z,996.10
2023-03-25T03:26:04.763Z,996.15
2023-03-25T03:27:04.732Z,996.11
2023-03-25T03:28:04.723Z,996.08
2023-03-25T03:29:04.687Z,996.07
2023-03-25T03:30:04.680Z,996.06
2023-03-25T03:31:04.684Z,996.10
2023-03-25T03:32:05.783Z,996.05
2023-03-25T03:33:04.627Z,996.08
2023-03-25T03:34:04.556Z,996.03
2023-03-25T03:35:04.526Z,996.12
2023-03-25T03:36:04.530Z,996.11
2023-03-25T03:37:04.480Z,996.10
2023-03-25T03:38:04.457Z,996.16
2023-03-25T03:39:04.424Z,996.11
2023-03-25T03:40:04.404Z,996.09
2023-03-25T03:41:04.377Z,996.12
2023-03-25T03:42:04.357Z,996.12
2023-03-25T03:43:04.324Z,996.13
2023-03-25T03:44:04.312Z,995.99
2023-03-25T03:45:04.284Z,996.05
2023-03-25T03:46:04.284Z,996.06
2023-03-25T03:47:04.223Z,996.11
2023-03-25T03:48:04.242Z,996.08
2023-03-25T03:49:04.185Z,996.08
2023-03-25T03:50:04.153Z,996.10
2023-03-25T03:51:04.126Z,996.11
2023-03-25T03:52:08.040Z,996.10
2023-03-25T03:53:04.095Z,996.14
2023-03-25T03:54:04.066Z,996.08
2023-03-25T03:55:04.020Z,996.01
2023-03-25T03:56:04.001Z,996.09
2023-03-25T03:57:04.019Z,996.10
2023-03-25T03:58:03.945Z,996.06
2023-03-25T03:59:03.920Z,996.03
2023-03-25T04:00:03.905Z,996.11
2023-03-25T04:01:03.876Z,996.12
2023-03-25T04:02:03.889Z,996.11
2023-03-25T04:03:03.867Z,996.14
2023-03-25T04:04:03.933Z,996.13
2023-03-25T04:05:03.785Z,996.16
2023-03-25T04:06:03.745Z,996.17
2023-03-25T04:07:03.717Z,996.17
2023-03-25T04:08:03.704Z,996.16
2023-03-25T04:09:03.688Z,996.15
2023-03-25T04:10:03.670Z,996.14
2023-03-25T04:11:03.620Z,996.11
2023-03-25T04:12:03.606Z,996.17
2023-03-25T04:13:03.574Z,996.21
2023-03-25T04:14:03.537Z,996.20
2023-03-25T04:15:03.534Z,996.12
2023-03-25T04:16:03.511Z,996.15
2023-03-25T04:17:03.471Z,996.15
2023-03-25T04:18:03.469Z,996.18
2023-03-25T04:19:03.405Z,996.10
2023-03-25T04:20:03.426Z,996.00
2023-03-25T04:21:03.356Z,996.15
2023-03-25T04:22:03.339Z,996.14
2023-03-25T04:23:03.306Z,996.19
2023-03-25T04:24:03.284Z,996.11
2023-03-25T04:25:03.253Z,996.06
2023-03-25T04:26:03.230Z,996.05
2023-03-25T04:27:03.198Z,996.10
2023-03-25T04:28:03.181Z,996.15
2023-03-25T04:29:03.158Z,996.27
2023-03-25T04:30:03.129Z,996.16
2023-03-25T04:31:03.135Z,996.12
2023-03-25T04:32:03.078Z,996.17
2023-03-25T04:33:03.073Z,996.15
2023-03-25T04:34:03.024Z,996.11
2023-03-25T04:35:03.000Z,996.13
2023-03-25T04:36:03.015Z,996.02
2023-03-25T04:37:02.948Z,996.09
2023-03-25T04:38:02.923Z,996.03
2023-03-25T04:39:02.896Z,996.19
2023-03-25T04:40:02.884Z,996.07
2023-03-25T04:41:02.914Z,996.03
2023-03-25T04:42:02.823Z,996.09
2023-03-25T04:43:02.799Z,996.07
2023-03-25T04:44:02.782Z,996.11
2023-03-25T04:45:02.746Z,996.04
2023-03-25T04:46:02.775Z,996.07
2023-03-25T04:47:02.695Z,996.05
2023-03-25T04:48:02.733Z,996.03
2023-03-25T04:49:02.655Z,996.04
2023-03-25T04:50:02.624Z,996.06
2023-03-25T04:51:02.589Z,996.02
2023-03-25T04:52:02.591Z,996.05
2023-03-25T04:53:02.542Z,996.08
2023-03-25T04:54:02.516Z,996.14
2023-03-25T04:55:02.485Z,996.05
2023-03-25T04:56:02.465Z,996.16
2023-03-25T04:57:02.459Z,996.08
2023-03-25T04:58:02.419Z,996.05
2023-03-25T04:59:02.386Z,995.95
2023-03-25T05:00:02.361Z,996.00
2023-03-25T05:01:02.361Z,995.93
2023-03-25T05:02:02.313Z,995.93
2023-03-25T05:03:02.378Z,996.01
2023-03-25T05:04:02.290Z,995.99
2023-03-25T05:05:02.249Z,996.03
2023-03-25T05:06:02.203Z,996.01
2023-03-25T05:07:02.174Z,996.02
2023-03-25T05:08:02.192Z,996.04
2023-03-25T05:09:02.124Z,996.02
2023-03-25T05:10:02.107Z,995.90
2023-03-25T05:11:02.074Z,996.00
2023-03-25T05:12:02.048Z,995.97
2023-03-25T05:13:02.018Z,995.99
2023-03-25T05:14:01.999Z,996.01
2023-03-25T05:15:01.970Z,996.03
2023-03-25T05:16:02.013Z,995.96
2023-03-25T05:17:01.917Z,995.94
2023-03-25T05:18:01.971Z,995.92
2023-03-25T05:19:01.870Z,995.98
2023-03-25T05:20:01.848Z,995.93
2023-03-25T05:21:01.823Z,995.99
2023-03-25T05:22:01.813Z,996.04
2023-03-25T05:23:01.772Z,996.05
2023-03-25T05:24:01.788Z,996.09
2023-03-25T05:25:01.733Z,996.01
2023-03-25T05:26:01.689Z,996.00
2023-03-25T05:27:01.710Z,996.03
2023-03-25T05:28:01.649Z,996.08
2023-03-25T05:29:01.615Z,996.01
2023-03-25T05:30:01.589Z,996.01
2023-03-25T05:31:01.562Z,996.03
2023-03-25T05:32:01.624Z,996.11
2023-03-25T05:33:01.586Z,996.07
2023-03-25T05:34:01.495Z,996.07
2023-03-25T05:35:01.468Z,996.00
2023-03-25T05:36:01.508Z,996.06
2023-03-25T05:37:01.409Z,996.07
2023-03-25T05:38:01.384Z,996.12
2023-03-25T05:39:01.357Z,996.11
2023-03-25T05:40:01.357Z,996.12
2023-03-25T05:41:01.319Z,996.14
2023-03-25T05:42:01.282Z,996.15
2023-03-25T05:43:01.260Z,996.11
2023-03-25T05:44:01.228Z,996.13
2023-03-25T05:45:01.210Z,996.17
2023-03-25T05:46:01.208Z,996.16
2023-03-25T05:47:01.165Z,996.16
2023-03-25T05:48:01.217Z,996.10
2023-03-25T05:49:01.178Z,996.15
2023-03-25T05:50:01.083Z,996.14
2023-03-25T05:51:01.045Z,996.12
2023-03-25T05:52:01.028Z,996.09
2023-03-25T05:53:00.998Z,996.15
2023-03-25T05:54:00.976Z,996.08
2023-03-25T05:55:00.951Z,996.17
2023-03-25T05:56:00.986Z,996.21
2023-03-25T05:57:00.918Z,996.17
2023-03-25T05:58:00.884Z,996.10
2023-03-25T05:59:00.843Z,996.14
2023-03-25T06:00:00.827Z,996.14
2023-03-25T06:01:00.794Z,996.16
2023-03-25T06:02:00.776Z,996.27
2023-03-25T06:03:00.827Z,996.24
2023-03-25T06:04:00.744Z,996.22
2023-03-25T06:05:00.700Z,996.17
2023-03-25T06:06:00.667Z,996.24
2023-03-25T06:07:00.640Z,996.25
2023-03-25T06:08:00.614Z,996.23
2023-03-25T06:09:00.598Z,996.14
2023-03-25T06:10:00.581Z,996.23
2023-03-25T06:11:00.540Z,996.12
2023-03-25T06:12:00.552Z,996.26
2023-03-25T06:13:00.489Z,996.25
2023-03-25T06:14:02.760Z,996.36
2023-03-25T06:15:00.444Z,996.32
2023-03-25T06:16:00.447Z,996.25
2023-03-25T06:17:00.386Z,996.30
2023-03-25T06:18:00.445Z,996.32
2023-03-25T06:19:00.596Z,996.36
2023-03-25T06:20:00.315Z,996.28
2023-03-25T06:21:00.289Z,996.26
2023-03-25T06:22:00.265Z,996.23
2023-03-25T06:23:00.230Z,996.24
2023-03-25T06:24:00.203Z,996.22
2023-03-25T06:25:03.122Z,996.19
2023-03-25T06:26:00.158Z,996.24
2023-03-25T06:27:00.126Z,996.27
2023-03-25T06:28:00.146Z,996.33
2023-03-25T06:29:00.135Z,996.29
2023-03-25T06:30:00.132Z,996.29
2023-03-25T06:31:00.038Z,996.33
2023-03-25T06:32:00.008Z,996.29
2023-03-25T06:33:00.013Z,996.28
2023-03-25T06:33:59.949Z,996.30
2023-03-25T06:34:59.925Z,996.25
2023-03-25T06:35:59.910Z,996.29
2023-03-25T06:36:59.872Z,996.35
2023-03-25T06:37:59.848Z,996.34
2023-03-25T06:38:59.819Z,996.35
2023-03-25T06:39:59.810Z,996.35
2023-03-25T06:40:59.765Z,996.31
2023-03-25T06:41:59.777Z,996.39
2023-03-25T06:42:59.722Z,996.38
2023-03-25T06:43:59.727Z,996.43
2023-03-25T06:44:59.670Z,996.40
2023-03-25T06:45:59.642Z,996.40
2023-03-25T06:46:59.613Z,996.40
2023-03-25T06:47:59.606Z,996.38
2023-03-25T06:48:59.561Z,996.41
2023-03-25T06:49:59.538Z,996.37
2023-03-25T06:50:59.525Z,996.41
2023-03-25T06:51:59.485Z,996.35
2023-03-25T06:52:59.470Z,996.31
2023-03-25T06:53:59.427Z,996.31
2023-03-25T06:54:59.418Z,996.30
2023-03-25T06:55:59.386Z,996.29
2023-03-25T06:56:59.439Z,996.23
2023-03-25T06:57:59.336Z,996.28
2023-03-25T06:58:59.308Z,996.28
2023-03-25T06:59:59.309Z,996.28
2023-03-25T07:00:59.262Z,996.36
2023-03-25T07:01:59.323Z,996.34
2023-03-25T07:02:59.243Z,996.33
2023-03-25T07:03:59.182Z,996.33
2023-03-25T07:04:59.210Z,996.26
2023-03-25T07:05:59.129Z,996.26
2023-03-25T07:06:59.108Z,996.27
2023-03-25T07:07:59.084Z,996.26
2023-03-25T07:08:59.067Z,996.27
2023-03-25T07:09:59.039Z,996.23
2023-03-25T07:10:59.017Z,996.24
2023-03-25T07:11:58.974Z,996.23
2023-03-25T07:12:58.970Z,996.15
2023-03-25T07:13:58.918Z,996.23
2023-03-25T07:14:58.901Z,996.19
2023-03-25T07:15:58.925Z,996.17
2023-03-25T07:16:58.852Z,996.26
2023-03-25T07:17:58.848Z,996.15
2023-03-25T07:18:58.803Z,996.19
2023-03-25T07:19:58.775Z,996.22
2023-03-25T07:20:58.761Z,996.19
2023-03-25T07:21:58.718Z,996.14
2023-03-25T07:22:58.693Z,996.24
2023-03-25T07:23:58.677Z,996.17
2023-03-25T07:24:58.644Z,996.14
2023-03-25T07:25:58.621Z,996.26
2023-03-25T07:26:58.604Z,996.23
2023-03-25T07:27:58.561Z,996.16
2023-03-25T07:28:58.552Z,996.10
2023-03-25T07:29:58.510Z,996.23
2023-03-25T07:30:58.509Z,996.26
2023-03-25T07:31:58.499Z,996.20
2023-03-25T07:32:58.517Z,996.22
2023-03-25T07:33:58.415Z,996.26
2023-03-25T07:34:58.388Z,996.27
2023-03-25T07:35:58.418Z,996.28
2023-03-25T07:36:58.342Z,996.30
2023-03-25T07:37:58.315Z,996.35
2023-03-25T07:38:58.293Z,996.35
2023-03-25T07:39:58.265Z,996.30
2023-03-25T07:40:58.250Z,996.33
2023-03-25T07:41:58.209Z,996.35
2023-03-25T07:42:58.194Z,996.33
2023-03-25T07:43:58.157Z,996.32
2023-03-25T07:44:58.137Z,996.36
2023-03-25T07:45:58.293Z,996.45
2023-03-25T07:46:58.097Z,996.34
2023-03-25T07:47:58.131Z,996.23
2023-03-25T07:48:58.050Z,996.40
2023-03-25T07:49:58.007Z,996.43
2023-03-25T07:50:57.986Z,996.37
2023-03-25T07:51:57.954Z,996.44
2023-03-25T07:52:57.942Z,996.43
2023-03-25T07:54:05.049Z,996.50
2023-03-25T07:54:57.884Z,996.44
2023-03-25T07:55:57.863Z,996.49
2023-03-25T07:56:58.038Z,996.45
2023-03-25T07:57:57.797Z,996.45
2023-03-25T07:58:57.784Z,996.42
2023-03-25T07:59:57.749Z,996.45
2023-03-25T08:00:57.743Z,996.53
2023-03-25T08:01:57.723Z,996.48
2023-03-25T08:02:57.770Z,996.60
2023-03-25T08:03:57.698Z,996.49
2023-03-25T08:04:57.629Z,996.46
2023-03-25T08:05:57.599Z,996.46
2023-03-25T08:06:57.574Z,996.51
2023-03-25T08:07:57.553Z,996.45
2023-03-25T08:08:57.527Z,996.53
2023-03-25T08:09:57.501Z,996.39
2023-03-25T08:10:57.470Z,996.49
2023-03-25T08:11:57.446Z,996.58
2023-03-25T08:12:57.425Z,996.51
2023-03-25T08:13:57.391Z,996.49
2023-03-25T08:14:57.373Z,996.56
2023-03-25T08:15:57.345Z,996.65
2023-03-25T08:16:57.366Z,996.60
2023-03-25T08:17:57.310Z,996.64
2023-03-25T08:18:57.270Z,996.64
2023-03-25T08:19:57.254Z,996.72
2023-03-25T08:20:57.232Z,996.55
2023-03-25T08:21:57.189Z,996.69
2023-03-25T08:22:57.167Z,996.64
2023-03-25T08:23:57.141Z,996.71
2023-03-25T08:24:57.119Z,996.75
2023-03-25T08:25:57.086Z,996.67
2023-03-25T08:26:57.061Z,996.73
2023-03-25T08:27:57.044Z,996.64
2023-03-25T08:28:57.017Z,996.55
2023-03-25T08:29:56.991Z,996.64
2023-03-25T08:30:56.966Z,996.63
2023-03-25T08:31:56.984Z,996.68
2023-03-25T08:32:56.950Z,996.54
2023-03-25T08:33:56.888Z,996.69
2023-03-25T08:34:56.859Z,996.63
2023-03-25T08:35:56.914Z,996.72
2023-03-25T08:36:56.812Z,996.72
2023-03-25T08:37:56.784Z,996.79
2023-03-25T08:38:56.769Z,996.71
2023-03-25T08:39:56.748Z,996.75
2023-03-25T08:40:56.715Z,996.71
2023-03-25T08:41:56.688Z,996.74
2023-03-25T08:42:56.666Z,996.69
2023-03-25T08:43:56.626Z,996.69
2023-03-25T08:44:56.605Z,996.68
2023-03-25T08:45:56.641Z,996.65
2023-03-25T08:46:56.555Z,996.61
2023-03-25T08:47:56.540Z,996.72
2023-03-25T08:48:56.508Z,996.64
2023-03-25T08:49:56.477Z,996.68
2023-03-25T08:50:56.461Z,996.55
2023-03-25T08:51:56.452Z,996.61
2023-03-25T08:52:56.408Z,996.55
2023-03-25T08:53:56.382Z,996.59
2023-03-25T08:54:56.359Z,996.58
2023-03-25T08:55:56.331Z,996.62
2023-03-25T08:56:56.384Z,996.56
2023-03-25T08:57:56.287Z,996.66
2023-03-25T08:58:56.255Z,996.62
2023-03-25T08:59:56.230Z,996.67
2023-03-25T09:00:56.283Z,996.61
2023-03-25T09:01:57.735Z,996.63
2023-03-25T09:02:56.181Z,996.62
2023-03-25T09:03:56.133Z,996.65
2023-03-25T09:04:56.144Z,996.61
2023-03-25T09:05:56.153Z,996.63
2023-03-25T09:07:10.271Z,996.58
2023-03-25T09:07:56.149Z,996.67
2023-03-25T09:08:56.172Z,996.57
2023-03-25T09:09:56.060Z,996.65
2023-03-25T09:10:55.956Z,996.61
2023-03-25T09:11:55.933Z,996.61
2023-03-25T09:12:55.911Z,996.60
2023-03-25T09:13:55.879Z,996.62
2023-03-25T09:14:55.861Z,996.58
2023-03-25T09:15:55.868Z,996.58
2023-03-25T09:16:55.818Z,996.86
2023-03-25T09:17:55.821Z,996.66
2023-03-25T09:18:55.753Z,996.70
2023-03-25T09:19:57.028Z,996.57
2023-03-25T09:20:55.710Z,996.66
2023-03-25T09:21:55.674Z,996.71
2023-03-25T09:22:55.661Z,996.58
2023-03-25T09:23:55.653Z,996.63
2023-03-25T09:24:55.609Z,996.50
2023-03-25T09:25:55.577Z,996.73
2023-03-25T09:26:55.557Z,996.65
2023-03-25T09:27:55.530Z,996.73
2023-03-25T09:28:55.570Z,996.66
2023-03-25T09:29:55.473Z,996.64
2023-03-25T09:30:55.541Z,996.65
2023-03-25T09:31:55.436Z,996.70
2023-03-25T09:32:55.464Z,996.74
2023-03-25T09:33:55.384Z,996.76
2023-03-25T09:34:55.354Z,996.69
2023-03-25T09:35:55.344Z,996.79
2023-03-25T09:36:55.302Z,996.92
2023-03-25T09:37:55.275Z,996.79
2023-03-25T09:38:55.252Z,996.90
2023-03-25T09:39:55.256Z,996.84
2023-03-25T09:40:55.199Z,996.88
2023-03-25T09:41:55.173Z,996.87
2023-03-25T09:42:55.155Z,996.91
2023-03-25T09:43:55.125Z,996.87
2023-03-25T09:44:55.127Z,996.83
2023-03-25T09:45:55.082Z,996.90
2023-03-25T09:46:55.083Z,996.98
2023-03-25T09:47:55.124Z,996.76
2023-03-25T09:48:55.002Z,996.89
2023-03-25T09:49:54.975Z,996.94
2023-03-25T09:50:54.951Z,996.93
2023-03-25T09:51:54.935Z,996.95
2023-03-25T09:52:54.900Z,996.90
2023-03-25T09:53:54.869Z,996.92
2023-03-25T09:54:54.853Z,996.90
2023-03-25T09:55:54.846Z,996.94
2023-03-25T09:56:54.849Z,997.00
2023-03-25T09:57:54.772Z,996.93
2023-03-25T09:58:54.749Z,996.95
2023-03-25T09:59:54.731Z,997.03
2023-03-25T10:00:54.742Z,996.99
2023-03-25T10:01:54.712Z,996.94
2023-03-25T10:02:54.683Z,996.93
2023-03-25T10:03:54.622Z,997.01
2023-03-25T10:04:54.610Z,996.90
2023-03-25T10:05:54.583Z,996.94
2023-03-25T10:06:54.552Z,996.96
2023-03-25T10:07:54.909Z,996.87
2023-03-25T10:08:54.508Z,996.90
2023-03-25T10:09:54.480Z,996.89
2023-03-25T10:10:54.473Z,996.90
2023-03-25T10:11:54.467Z,996.87
2023-03-25T10:12:54.404Z,996.97
2023-03-25T10:13:54.388Z,996.89
2023-03-25T10:14:54.360Z,996.91
2023-03-25T10:15:54.324Z,996.93
2023-03-25T10:16:54.302Z,996.93
2023-03-25T10:17:54.298Z,996.95
2023-03-25T10:18:54.252Z,996.98
2023-03-25T10:19:54.232Z,996.95
2023-03-25T10:20:55.691Z,997.02
2023-03-25T10:21:54.178Z,996.92
2023-03-25T10:22:54.161Z,996.98
2023-03-25T10:23:54.126Z,996.95
2023-03-25T10:24:54.105Z,996.98
2023-03-25T10:25:54.078Z,996.97
2023-03-25T10:26:54.054Z,996.95
2023-03-25T10:27:54.045Z,996.91
2023-03-25T10:28:54.006Z,997.12
2023-03-25T10:29:53.981Z,996.99
2023-03-25T10:30:53.955Z,997.03
2023-03-25T10:31:53.983Z,997.11
2023-03-25T10:32:54.012Z,997.11
2023-03-25T10:33:53.883Z,997.12
2023-03-25T10:34:53.856Z,997.21
2023-03-25T10:35:54.121Z,997.24
2023-03-25T10:36:53.803Z,997.15
2023-03-25T10:37:53.773Z,997.23
2023-03-25T10:38:53.753Z,997.14
2023-03-25T10:39:53.727Z,997.23
2023-03-25T10:40:53.707Z,997.22
2023-03-25T10:41:53.677Z,997.26
2023-03-25T10:42:53.665Z,997.28
2023-03-25T10:43:53.665Z,997.21
2023-03-25T10:44:53.612Z,997.29
2023-03-25T10:45:53.950Z,997.20
2023-03-25T10:46:53.574Z,997.16
2023-03-25T10:47:53.550Z,997.15
2023-03-25T10:48:53.503Z,997.14
2023-03-25T10:49:53.473Z,997.13
2023-03-25T10:50:53.465Z,997.20
2023-03-25T10:51:53.424Z,997.07
2023-03-25T10:52:53.406Z,997.10
2023-03-25T10:53:53.494Z,997.00
2023-03-25T10:54:53.362Z,997.03
2023-03-25T10:55:53.365Z,997.07
2023-03-25T10:56:53.324Z,997.07
2023-03-25T10:57:53.277Z,997.06
2023-03-25T10:58:53.253Z,997.11
2023-03-25T10:59:53.243Z,997.08
2023-03-25T11:00:53.231Z,997.17
2023-03-25T11:01:53.208Z,997.10
2023-03-25T11:02:53.253Z,997.08
2023-03-25T11:03:53.128Z,997.09
2023-03-25T11:04:53.129Z,997.09
2023-03-25T11:05:53.188Z,997.14
2023-03-25T11:06:53.048Z,997.13
2023-03-25T11:07:53.042Z,997.10
2023-03-25T11:08:53.005Z,997.13
2023-03-25T11:09:52.998Z,997.10
2023-03-25T11:10:52.955Z,996.98
2023-03-25T11:11:52.931Z,997.07
2023-03-25T11:12:52.898Z,997.09
2023-03-25T11:13:52.875Z,997.07
2023-03-25T11:14:52.849Z,997.03
2023-03-25T11:15:53.267Z,997.03
2023-03-25T11:16:52.852Z,997.00
2023-03-25T11:17:52.795Z,997.02
2023-03-25T11:18:52.749Z,997.01
2023-03-25T11:19:52.728Z,997.03
2023-03-25T11:20:52.701Z,997.01
2023-03-25T11:21:52.676Z,997.00
2023-03-25T11:22:52.646Z,997.00
2023-03-25T11:23:52.628Z,997.00
2023-03-25T11:24:52.600Z,996.98
2023-03-25T11:25:52.796Z,996.96
2023-03-25T11:26:52.561Z,996.95
2023-03-25T11:27:52.552Z,996.99
2023-03-25T11:28:52.498Z,996.92
2023-03-25T11:29:52.475Z,996.97
2023-03-25T11:30:52.480Z,996.95
2023-03-25T11:31:52.450Z,996.91
2023-03-25T11:32:52.462Z,996.91
2023-03-25T11:33:52.381Z,996.97
2023-03-25T11:34:52.399Z,996.92
2023-03-25T11:35:52.464Z,996.93
2023-03-25T11:36:52.305Z,996.94
2023-03-25T11:37:52.289Z,996.94
2023-03-25T11:38:52.256Z,996.94
2023-03-25T11:39:52.231Z,996.96
2023-03-25T11:40:52.208Z,997.01
2023-03-25T11:41:52.196Z,996.98
2023-03-25T11:42:52.165Z,996.99
2023-03-25T11:43:52.141Z,996.89
2023-03-25T11:44:52.113Z,996.88
2023-03-25T11:45:52.315Z,996.92
2023-03-25T11:46:52.071Z,996.89
2023-03-25T11:47:52.153Z,996.82
2023-03-25T11:48:52.005Z,996.87
2023-03-25T11:49:51.990Z,996.81
2023-03-25T11:50:51.965Z,996.82
2023-03-25T11:51:52.929Z,996.83
2023-03-25T11:52:51.917Z,996.80
2023-03-25T11:53:51.890Z,996.80
2023-03-25T11:54:51.860Z,996.87
2023-03-25T11:55:52.127Z,996.96
2023-03-25T11:56:51.835Z,996.96
2023-03-25T11:57:51.797Z,996.98
2023-03-25T11:58:51.755Z,997.08
2023-03-25T11:59:51.737Z,997.08
2023-03-25T12:00:51.729Z,997.08
2023-03-25T12:01:51.708Z,997.36
2023-03-25T12:02:51.756Z,997.17
2023-03-25T12:03:51.846Z,997.04
2023-03-25T12:04:51.612Z,997.06
2023-03-25T12:05:51.742Z,997.11
2023-03-25T12:06:51.571Z,997.12
2023-03-25T12:07:51.549Z,997.12
2023-03-25T12:08:51.540Z,997.08
2023-03-25T12:09:51.506Z,997.10
2023-03-25T12:10:51.469Z,997.10
2023-03-25T12:11:51.440Z,997.08
2023-03-25T12:12:51.412Z,997.04
2023-03-25T12:13:51.400Z,997.04
2023-03-25T12:14:51.367Z,997.04
2023-03-25T12:15:51.571Z,996.98
2023-03-25T12:16:51.311Z,997.04
2023-03-25T12:17:51.338Z,997.06
2023-03-25T12:18:51.262Z,997.01
2023-03-25T12:19:51.267Z,997.09
2023-03-25T12:20:51.434Z,997.06
2023-03-25T12:21:51.206Z,997.05
2023-03-25T12:22:51.169Z,997.06
2023-03-25T12:23:51.141Z,997.06
2023-03-25T12:24:51.123Z,997.06
2023-03-25T12:25:51.236Z,996.99
2023-03-25T12:26:51.070Z,997.03
2023-03-25T12:27:52.074Z,996.96